logo
Search for airport 
image banner adimage banner adimage banner ad
image banner ad

EGTU - Dunkeswell

Located in Exeter, United Kingdom

ICAO - EGTU, IATA -

Data provided by Airmate  

General information

Coordinates: N50°51'36" W3°14'5"
Elevation is 839 feet MSL.
 
View others Airports in England

Operational data

Special qualification required
Current time UTC:
Current local time:
Weather at : EGTE - Exeter ( 19 km )
METAR: EGTE 270050Z 35006KT CAVOK 04/01 Q1023
View NOTAMs / SUP AIP / TFR affecting this airport [VIEW]
Communications frequencies: [VIEW]

Runways:

RWY identifierQFULength (ft)Width (ft)SurfaceLDA (ft)
0441°3173148ASP
22221°3173148ASP
17170°211375ASP
35350°211375ASP

Airport contact information

Address: Exeter United Kingdom

Other aviation service providers

Flight schools

A.H. Helicopter Services Limited

A.H. Helicopter Services Limited

Ace Flight Training Llp

Ace Flight Training Llp
info@aceflight.co.uk+44 01404891811

Devon & Somerset Flight Training Limited

Devon & Somerset Flight Training Limited
info@dsft.co.uk+44 01404891643

Satellite view of EGTU